createdAt,value
2024-01-22T00:01:15.302Z,80.05
2024-01-22T00:03:50.292Z,80.25
2024-01-22T00:06:19.209Z,79.15
2024-01-22T00:08:48.460Z,79.39
2024-01-22T00:11:17.348Z,79.93
2024-01-22T00:13:46.462Z,79.51
2024-01-22T00:16:16.613Z,79.16
2024-01-22T00:18:45.955Z,80.45
2024-01-22T00:21:16.314Z,79.68
2024-01-22T00:23:45.548Z,80.31
2024-01-22T00:26:15.669Z,80.38
2024-01-22T00:28:44.739Z,79.09
2024-01-22T00:31:13.648Z,79.30
2024-01-22T00:33:44.044Z,79.11
2024-01-22T00:36:14.296Z,79.23
2024-01-22T00:38:44.913Z,79.32
2024-01-22T00:41:13.877Z,79.30
2024-01-22T00:43:43.019Z,80.06
2024-01-22T00:46:11.905Z,80.06
2024-01-22T00:48:41.047Z,80.54
2024-01-22T00:51:11.410Z,80.14
2024-01-22T00:53:40.753Z,80.22
2024-01-22T00:56:10.919Z,79.69
2024-01-22T00:58:40.442Z,80.38
2024-01-22T01:01:09.855Z,79.62
2024-01-22T01:03:39.179Z,78.78
2024-01-22T01:06:08.164Z,78.33
2024-01-22T01:08:37.388Z,79.30
2024-01-22T01:11:06.310Z,79.04
2024-01-22T01:13:36.873Z,78.28
2024-01-22T01:16:05.938Z,78.01
2024-01-22T01:18:35.221Z,77.89
2024-01-22T01:21:04.183Z,78.41
2024-01-22T01:23:35.227Z,78.38
2024-01-22T01:26:05.278Z,78.75
2024-01-22T01:28:34.418Z,78.95
2024-01-22T01:31:04.775Z,77.71
2024-01-22T01:33:34.383Z,77.88
2024-01-22T01:36:03.304Z,78.28
2024-01-22T01:38:32.695Z,77.91
2024-01-22T01:41:01.711Z,77.41
2024-01-22T01:43:31.015Z,76.92
2024-01-22T01:46:00.197Z,76.75
2024-01-22T01:48:31.090Z,77.26
2024-01-22T01:51:02.023Z,76.92
2024-01-22T01:53:31.424Z,77.62
2024-01-22T01:56:00.350Z,77.86
2024-01-22T01:58:29.552Z,77.65
2024-01-22T02:00:59.018Z,77.34
2024-01-22T02:03:28.305Z,77.50
2024-01-22T02:05:58.631Z,77.33
2024-01-22T02:08:27.924Z,78.01
2024-01-22T02:10:56.759Z,77.39
2024-01-22T02:13:27.314Z,76.87
2024-01-22T02:15:56.358Z,76.08
2024-01-22T02:18:26.202Z,77.04
2024-01-22T02:20:55.141Z,76.51
2024-01-22T02:23:25.798Z,77.45
2024-01-22T02:25:54.789Z,77.04
2024-01-22T02:28:23.928Z,77.40
2024-01-22T02:30:52.733Z,77.44
2024-01-22T02:33:21.875Z,76.91
2024-01-22T02:35:50.848Z,76.81
2024-01-22T02:38:19.929Z,76.71
2024-01-22T02:40:50.168Z,75.85
2024-01-22T02:43:19.358Z,75.39
2024-01-22T02:45:49.677Z,77.18
2024-01-22T02:48:19.019Z,76.89
2024-01-22T02:50:47.988Z,76.43
2024-01-22T02:53:17.202Z,76.67
2024-01-22T02:55:46.070Z,76.62
2024-01-22T02:58:16.575Z,75.36
2024-01-22T03:00:45.608Z,76.41
2024-01-22T03:03:15.310Z,76.11
2024-01-22T03:05:45.001Z,76.41
2024-01-22T03:08:14.790Z,75.83
2024-01-22T03:10:43.805Z,76.59
2024-01-22T03:13:13.225Z,76.38
2024-01-22T03:15:43.571Z,77.46
2024-01-22T03:18:13.833Z,76.81
2024-01-22T03:20:43.147Z,77.69
2024-01-22T03:23:12.381Z,78.03
2024-01-22T03:25:41.248Z,77.49
2024-01-22T03:28:10.554Z,78.07
2024-01-22T03:30:39.477Z,77.75
2024-01-22T03:33:10.189Z,78.48
2024-01-22T03:35:39.172Z,77.75
2024-01-22T03:38:08.384Z,78.30
2024-01-22T03:40:37.444Z,77.23
2024-01-22T03:43:06.788Z,78.20
2024-01-22T03:45:35.790Z,77.50
2024-01-22T03:48:05.181Z,77.60
2024-01-22T03:50:35.624Z,77.69
2024-01-22T03:53:05.325Z,78.14
2024-01-22T03:55:34.268Z,78.18
2024-01-22T03:58:03.532Z,78.54
2024-01-22T04:00:32.596Z,78.37
2024-01-22T04:03:02.301Z,79.57
2024-01-22T04:05:31.449Z,80.01
2024-01-22T04:08:02.266Z,79.94
2024-01-22T04:10:31.342Z,80.40
2024-01-22T04:13:03.041Z,79.48
2024-01-22T04:15:32.106Z,80.07
2024-01-22T04:18:01.419Z,79.77
2024-01-22T04:20:30.348Z,80.89
2024-01-22T04:22:59.468Z,80.42
2024-01-22T04:25:29.898Z,80.79
2024-01-22T04:27:59.212Z,80.27
2024-01-22T04:30:28.266Z,79.95
2024-01-22T04:32:57.626Z,80.35
2024-01-22T04:35:26.575Z,80.91
2024-01-22T04:37:56.009Z,81.24
2024-01-22T04:40:24.975Z,81.62
2024-01-22T04:42:55.503Z,81.71
2024-01-22T04:45:24.580Z,82.17
2024-01-22T04:47:54.177Z,82.44
2024-01-22T04:50:23.287Z,81.43
2024-01-22T04:52:52.490Z,81.89
2024-01-22T04:55:23.050Z,82.42
2024-01-22T04:57:53.568Z,82.38
2024-01-22T05:00:24.112Z,82.63
2024-01-22T05:02:56.740Z,83.01
2024-01-22T05:05:26.323Z,82.91
2024-01-22T05:07:55.774Z,82.72
2024-01-22T05:10:24.687Z,82.54
2024-01-22T05:12:54.492Z,82.82
2024-01-22T05:15:24.790Z,82.98
2024-01-22T05:17:54.164Z,83.24
2024-01-22T05:20:23.255Z,82.96
2024-01-22T05:22:52.550Z,83.29
2024-01-22T05:25:21.312Z,82.32
2024-01-22T05:27:50.519Z,83.25
2024-01-22T05:30:19.610Z,82.42
2024-01-22T05:32:53.231Z,83.03
2024-01-22T05:35:22.479Z,82.49
2024-01-22T05:37:52.189Z,82.38
2024-01-22T05:40:21.300Z,82.00
2024-01-22T05:42:50.853Z,83.24
2024-01-22T05:45:20.059Z,82.23
2024-01-22T05:47:51.282Z,82.70
2024-01-22T05:50:20.563Z,82.96
2024-01-22T05:52:49.903Z,82.91
2024-01-22T05:55:19.941Z,82.80
2024-01-22T05:57:49.525Z,83.55
2024-01-22T06:00:20.185Z,83.24
2024-01-22T06:02:51.144Z,83.73
2024-01-22T06:05:20.438Z,83.04
2024-01-22T06:07:50.047Z,83.55
2024-01-22T06:10:19.638Z,83.59
2024-01-22T06:12:49.144Z,83.40
2024-01-22T06:15:18.120Z,83.07
2024-01-22T06:17:47.457Z,83.08
2024-01-22T06:20:17.823Z,83.29
2024-01-22T06:22:47.115Z,83.25
2024-01-22T06:25:15.957Z,82.91
2024-01-22T06:27:46.684Z,82.62
2024-01-22T06:30:16.913Z,82.71
2024-01-22T06:32:46.557Z,83.03
2024-01-22T06:35:15.718Z,82.96
2024-01-22T06:37:46.262Z,83.36
2024-01-22T06:40:17.370Z,83.00
2024-01-22T06:42:46.799Z,83.15
2024-01-22T06:45:16.814Z,83.17
2024-01-22T06:47:46.183Z,83.03
2024-01-22T06:50:15.618Z,83.24
2024-01-22T06:52:47.002Z,83.22
2024-01-22T06:55:15.936Z,82.84
2024-01-22T06:57:45.282Z,83.23
2024-01-22T07:00:17.084Z,83.32
2024-01-22T07:02:52.456Z,83.68
2024-01-22T07:05:22.246Z,83.79
2024-01-22T07:07:52.779Z,83.57
2024-01-22T07:10:22.402Z,83.48
2024-01-22T07:12:51.615Z,84.56
2024-01-22T07:15:21.180Z,83.74
2024-01-22T07:17:51.559Z,83.75
2024-01-22T07:20:20.841Z,84.05
2024-01-22T07:22:50.049Z,84.03
2024-01-22T07:25:20.703Z,83.77
2024-01-22T07:27:50.248Z,83.89
2024-01-22T07:30:20.017Z,84.08
2024-01-22T07:32:49.437Z,84.42
2024-01-22T07:35:18.751Z,84.07
2024-01-22T07:37:48.067Z,84.45
2024-01-22T07:40:17.669Z,84.34
2024-01-22T07:42:47.840Z,84.33
2024-01-22T07:45:17.302Z,84.39
2024-01-22T07:47:46.489Z,84.55
2024-01-22T07:50:16.246Z,84.57
2024-01-22T07:52:47.481Z,84.41
2024-01-22T07:55:19.450Z,84.16
2024-01-22T07:57:50.007Z,84.15
2024-01-22T08:00:20.447Z,83.99
2024-01-22T08:02:49.480Z,83.95
2024-01-22T08:05:18.939Z,84.29
2024-01-22T08:07:47.920Z,83.87
2024-01-22T08:10:17.670Z,83.92
2024-01-22T08:12:47.593Z,83.78
2024-01-22T08:15:18.707Z,83.70
2024-01-22T08:17:48.910Z,84.10
2024-01-22T08:20:20.322Z,84.08
2024-01-22T08:22:50.338Z,83.23
2024-01-22T08:25:28.594Z,83.53
2024-01-22T08:27:57.997Z,83.55
2024-01-22T08:30:29.180Z,84.04
2024-01-22T08:32:59.705Z,83.69
2024-01-22T08:35:29.393Z,83.74
2024-01-22T08:37:58.295Z,83.80
2024-01-22T08:40:28.893Z,85.23
2024-01-22T08:42:57.639Z,86.48
2024-01-22T08:45:28.170Z,86.56
2024-01-22T08:47:57.136Z,86.29
2024-01-22T08:50:26.231Z,86.30
2024-01-22T08:52:55.364Z,86.30
2024-01-22T08:55:25.398Z,86.38
2024-01-22T08:57:55.550Z,87.07
2024-01-22T09:00:25.814Z,87.59
2024-01-22T09:02:56.311Z,88.54
2024-01-22T09:05:26.239Z,88.83
2024-01-22T09:07:58.015Z,89.62
2024-01-22T09:10:29.639Z,90.50
2024-01-22T09:12:58.710Z,91.25
2024-01-22T09:15:28.254Z,93.23
2024-01-22T09:17:59.085Z,94.68
2024-01-22T09:20:28.548Z,96.84
2024-01-22T09:22:57.583Z,98.33
2024-01-22T09:25:26.904Z,99.38
2024-01-22T09:27:55.907Z,99.85
2024-01-22T09:30:25.302Z,100.00
2024-01-22T09:32:59.159Z,100.00
2024-01-22T09:35:30.292Z,100.00
2024-01-22T09:37:59.457Z,100.00
2024-01-22T09:40:30.884Z,100.00
2024-01-22T09:43:05.112Z,100.00
2024-01-22T09:45:34.973Z,100.00
2024-01-22T09:48:05.567Z,100.00
2024-01-22T09:50:36.303Z,100.00
2024-01-22T09:53:10.582Z,100.00
2024-01-22T09:55:40.926Z,100.00
2024-01-22T09:58:10.689Z,100.00
2024-01-22T10:00:41.009Z,100.00
2024-01-22T10:03:10.127Z,99.98
2024-01-22T10:05:41.066Z,99.88
2024-01-22T10:08:10.049Z,99.50
2024-01-22T10:10:39.311Z,99.41
2024-01-22T10:13:09.562Z,98.83
2024-01-22T10:15:39.370Z,98.34
2024-01-22T10:18:12.727Z,98.26
2024-01-22T10:20:44.445Z,99.79
2024-01-22T10:23:14.174Z,100.00
2024-01-22T10:25:43.641Z,100.00
2024-01-22T10:28:13.424Z,100.00
2024-01-22T10:30:43.049Z,100.00
2024-01-22T10:33:15.944Z,100.00
2024-01-22T10:35:50.313Z,100.00
2024-01-22T10:38:20.555Z,100.00
2024-01-22T10:40:50.309Z,100.00
2024-01-22T10:43:20.328Z,100.00
2024-01-22T10:45:50.481Z,100.00
2024-01-22T10:48:31.067Z,100.00
2024-01-22T10:51:09.321Z,100.00
2024-01-22T10:53:39.029Z,100.00
2024-01-22T10:56:14.073Z,100.00
2024-01-22T10:58:44.685Z,100.00
2024-01-22T11:01:16.726Z,99.30
2024-01-22T11:03:48.600Z,99.07
2024-01-22T11:06:22.937Z,99.44
2024-01-22T11:08:52.522Z,98.80
2024-01-22T11:11:22.218Z,99.09
2024-01-22T11:13:52.596Z,99.10
2024-01-22T11:16:22.253Z,98.89
2024-01-22T11:18:58.103Z,98.52
2024-01-22T11:21:33.834Z,99.17
2024-01-22T11:24:06.886Z,99.39
2024-01-22T11:26:36.142Z,100.00
2024-01-22T11:29:08.891Z,99.72
2024-01-22T11:31:39.396Z,99.56
2024-01-22T11:34:08.432Z,99.57
2024-01-22T11:36:57.094Z,99.13
2024-01-22T11:39:44.453Z,99.98
2024-01-22T11:42:29.751Z,99.46
2024-01-22T11:45:08.556Z,100.00
2024-01-22T11:47:39.446Z,100.00
2024-01-22T11:50:09.375Z,100.00
2024-01-22T11:52:40.247Z,100.00
2024-01-22T11:55:10.084Z,100.00
2024-01-22T11:57:41.135Z,100.00
2024-01-22T12:00:13.525Z,100.00
2024-01-22T12:02:43.869Z,100.00
2024-01-22T12:05:14.910Z,100.00
2024-01-22T12:07:47.484Z,100.00
2024-01-22T12:10:21.419Z,100.00
2024-01-22T12:12:51.577Z,100.00
2024-01-22T12:15:22.217Z,100.00
2024-01-22T12:17:51.952Z,100.00
2024-01-22T12:20:21.577Z,100.00
2024-01-22T12:22:58.921Z,100.00
2024-01-22T12:25:38.072Z,100.00
2024-01-22T12:28:12.587Z,100.00
2024-01-22T12:30:43.737Z,100.00
2024-01-22T12:33:23.910Z,100.00
2024-01-22T12:36:05.544Z,100.00
2024-01-22T12:38:36.739Z,100.00
2024-01-22T12:41:09.934Z,100.00
2024-01-22T12:43:41.748Z,100.00
2024-01-22T12:46:51.401Z,100.00
2024-01-22T12:49:31.728Z,100.00
2024-01-22T12:52:10.783Z,100.00
2024-01-22T12:54:41.369Z,100.00
2024-01-22T12:57:10.395Z,100.00
2024-01-22T12:59:39.642Z,100.00
2024-01-22T13:02:08.686Z,100.00
2024-01-22T13:04:37.949Z,100.00
2024-01-22T13:07:06.871Z,100.00
2024-01-22T13:09:36.169Z,100.00
2024-01-22T13:12:08.025Z,100.00
2024-01-22T13:14:37.515Z,100.00
2024-01-22T13:17:09.282Z,100.00
2024-01-22T13:19:41.614Z,100.00
2024-01-22T13:22:11.975Z,100.00
2024-01-22T13:24:43.260Z,100.00
2024-01-22T13:27:13.767Z,100.00
2024-01-22T13:29:43.132Z,100.00
2024-01-22T13:32:12.605Z,100.00
2024-01-22T13:34:42.371Z,100.00
2024-01-22T13:37:11.752Z,100.00
2024-01-22T13:39:44.631Z,100.00
2024-01-22T13:42:21.665Z,100.00
2024-01-22T13:44:51.934Z,100.00
2024-01-22T13:47:28.451Z,100.00
2024-01-22T13:50:06.950Z,100.00
2024-01-22T13:52:36.595Z,100.00
2024-01-22T13:55:06.839Z,100.00
2024-01-22T13:57:37.227Z,100.00
2024-01-22T14:00:07.621Z,100.00
2024-01-22T14:02:36.539Z,100.00
2024-01-22T14:05:07.128Z,100.00
2024-01-22T14:07:37.586Z,100.00
2024-01-22T14:10:07.302Z,100.00
2024-01-22T14:12:37.536Z,100.00
2024-01-22T14:15:07.534Z,100.00
2024-01-22T14:17:36.724Z,100.00
2024-01-22T14:20:08.155Z,100.00
2024-01-22T14:22:38.109Z,100.00
2024-01-22T14:25:09.000Z,100.00
2024-01-22T14:27:39.348Z,100.00
2024-01-22T14:30:09.150Z,100.00
2024-01-22T14:32:39.899Z,100.00
2024-01-22T14:35:10.011Z,100.00
2024-01-22T14:37:38.940Z,100.00
2024-01-22T14:40:09.273Z,100.00
2024-01-22T14:42:39.629Z,100.00
2024-01-22T14:45:10.106Z,100.00
2024-01-22T14:47:39.003Z,100.00
2024-01-22T14:50:08.259Z,100.00
2024-01-22T14:52:37.172Z,100.00
2024-01-22T14:55:08.263Z,100.00
2024-01-22T14:57:38.235Z,100.00
2024-01-22T15:00:09.827Z,100.00
2024-01-22T15:02:38.799Z,100.00
2024-01-22T15:05:08.465Z,100.00
2024-01-22T15:07:37.291Z,100.00
2024-01-22T15:10:08.250Z,100.00
2024-01-22T15:12:37.213Z,100.00
2024-01-22T15:15:06.911Z,100.00
2024-01-22T15:17:37.489Z,100.00
2024-01-22T15:20:07.387Z,100.00
2024-01-22T15:22:37.359Z,100.00
2024-01-22T15:25:06.996Z,100.00
2024-01-22T15:27:36.043Z,100.00
2024-01-22T15:30:06.866Z,100.00
2024-01-22T15:32:37.694Z,100.00
2024-01-22T15:35:08.079Z,100.00
2024-01-22T15:37:37.773Z,100.00
2024-01-22T15:40:07.853Z,100.00
2024-01-22T15:42:37.705Z,100.00
2024-01-22T15:45:09.390Z,100.00
2024-01-22T15:47:41.129Z,100.00
2024-01-22T15:50:10.924Z,100.00
2024-01-22T15:52:39.793Z,100.00
2024-01-22T15:55:09.547Z,100.00
2024-01-22T15:57:38.575Z,100.00
2024-01-22T16:00:13.086Z,100.00
2024-01-22T16:02:43.339Z,100.00
2024-01-22T16:05:12.766Z,100.00
2024-01-22T16:07:43.065Z,100.00
2024-01-22T16:10:12.486Z,100.00
2024-01-22T16:12:41.338Z,100.00
2024-01-22T16:15:10.820Z,100.00
2024-01-22T16:17:39.766Z,100.00
2024-01-22T16:20:12.697Z,100.00
2024-01-22T16:22:42.141Z,100.00
2024-01-22T16:25:11.623Z,100.00
2024-01-22T16:27:40.468Z,100.00
2024-01-22T16:30:10.548Z,100.00
2024-01-22T16:32:39.485Z,100.00
2024-01-22T16:35:10.521Z,100.00
2024-01-22T16:37:39.720Z,100.00
2024-01-22T16:40:15.810Z,100.00
2024-01-22T16:42:45.143Z,100.00
2024-01-22T16:45:14.932Z,100.00
2024-01-22T16:47:43.798Z,100.00
2024-01-22T16:50:14.450Z,100.00
2024-01-22T16:52:43.448Z,100.00
2024-01-22T16:55:13.300Z,100.00
2024-01-22T16:57:42.379Z,100.00
2024-01-22T17:00:12.230Z,100.00
2024-01-22T17:02:41.184Z,100.00
2024-01-22T17:05:11.189Z,100.00
2024-01-22T17:07:41.678Z,100.00
2024-01-22T17:10:12.340Z,100.00
2024-01-22T17:12:41.833Z,100.00
2024-01-22T17:15:12.364Z,100.00
2024-01-22T17:17:41.786Z,100.00
2024-01-22T17:20:11.381Z,100.00
2024-01-22T17:22:41.784Z,100.00
2024-01-22T17:25:11.789Z,100.00
2024-01-22T17:27:41.170Z,100.00
2024-01-22T17:30:10.751Z,100.00
2024-01-22T17:32:39.891Z,100.00
2024-01-22T17:35:09.731Z,100.00
2024-01-22T17:37:38.730Z,100.00
2024-01-22T17:40:11.020Z,100.00
2024-01-22T17:42:40.299Z,100.00
2024-01-22T17:45:09.781Z,100.00
2024-01-22T17:47:38.649Z,100.00
2024-01-22T17:50:08.448Z,100.00
2024-01-22T17:52:38.597Z,100.00
2024-01-22T17:55:09.653Z,100.00
2024-01-22T17:57:38.481Z,100.00
2024-01-22T18:00:08.238Z,100.00
2024-01-22T18:02:37.211Z,100.00
2024-01-22T18:05:06.773Z,100.00
2024-01-22T18:07:35.626Z,100.00
2024-01-22T18:10:05.391Z,100.00
2024-01-22T18:12:35.774Z,100.00
2024-01-22T18:15:05.349Z,100.00
2024-01-22T18:17:34.336Z,100.00
2024-01-22T18:20:04.895Z,100.00
2024-01-22T18:22:35.770Z,100.00
2024-01-22T18:25:05.416Z,100.00
2024-01-22T18:27:35.765Z,100.00
2024-01-22T18:30:05.384Z,100.00
2024-01-22T18:32:34.582Z,100.00
2024-01-22T18:35:04.205Z,100.00
2024-01-22T18:37:33.131Z,100.00
2024-01-22T18:40:03.461Z,100.00
2024-01-22T18:42:32.396Z,100.00
2024-01-22T18:45:03.381Z,100.00
2024-01-22T18:47:32.254Z,100.00
2024-01-22T18:50:01.397Z,100.00
2024-01-22T18:52:30.452Z,100.00
2024-01-22T18:54:59.567Z,100.00
2024-01-22T18:57:28.485Z,100.00
2024-01-22T18:59:57.640Z,100.00
2024-01-22T19:02:27.907Z,100.00
2024-01-22T19:04:58.142Z,100.00
2024-01-22T19:07:27.905Z,100.00
2024-01-22T19:09:57.290Z,100.00
2024-01-22T19:12:26.292Z,100.00
2024-01-22T19:14:55.654Z,100.00
2024-01-22T19:17:26.854Z,100.00
2024-01-22T19:19:57.698Z,100.00
2024-01-22T19:22:26.549Z,100.00
2024-01-22T19:24:56.016Z,100.00
2024-01-22T19:27:24.869Z,100.00
2024-01-22T19:29:54.186Z,100.00
2024-01-22T19:32:23.077Z,100.00
2024-01-22T19:34:52.319Z,100.00
2024-01-22T19:37:22.561Z,100.00
2024-01-22T19:39:51.830Z,100.00
2024-01-22T19:42:20.583Z,100.00
2024-01-22T19:44:49.798Z,100.00
2024-01-22T19:47:19.790Z,100.00
2024-01-22T19:49:48.972Z,100.00
2024-01-22T19:52:17.782Z,100.00
2024-01-22T19:54:48.248Z,100.00
2024-01-22T19:57:17.354Z,100.00
2024-01-22T19:59:46.720Z,100.00
2024-01-22T20:02:15.727Z,100.00
2024-01-22T20:04:45.512Z,100.00
2024-01-22T20:07:14.626Z,100.00
2024-01-22T20:09:43.789Z,100.00
2024-01-22T20:12:14.190Z,100.00
2024-01-22T20:14:43.458Z,100.00
2024-01-22T20:17:12.526Z,100.00
2024-01-22T20:19:41.911Z,100.00
2024-01-22T20:22:09.845Z,100.00
2024-01-22T20:24:39.542Z,100.00
2024-01-22T20:27:09.392Z,100.00
2024-01-22T20:29:40.612Z,100.00
2024-01-22T20:32:10.126Z,100.00
2024-01-22T20:34:39.826Z,100.00
2024-01-22T20:37:08.730Z,100.00
2024-01-22T20:39:38.296Z,100.00
2024-01-22T20:42:07.645Z,100.00
2024-01-22T20:44:37.043Z,100.00
2024-01-22T20:47:07.752Z,100.00
2024-01-22T20:49:37.090Z,100.00
2024-01-22T20:52:06.881Z,100.00
2024-01-22T20:54:37.638Z,100.00
2024-01-22T20:57:06.675Z,100.00
2024-01-22T20:59:35.809Z,100.00
2024-01-22T21:02:04.915Z,100.00
2024-01-22T21:04:35.803Z,100.00
2024-01-22T21:07:05.123Z,100.00
2024-01-22T21:09:34.828Z,100.00
2024-01-22T21:12:03.962Z,100.00
2024-01-22T21:14:35.722Z,100.00
2024-01-22T21:17:05.361Z,100.00
2024-01-22T21:19:36.798Z,100.00
2024-01-22T21:22:05.835Z,100.00
2024-01-22T21:24:37.550Z,100.00
2024-01-22T21:27:06.653Z,100.00
2024-01-22T21:29:35.869Z,100.00
2024-01-22T21:32:05.384Z,100.00
2024-01-22T21:34:36.059Z,100.00
2024-01-22T21:37:05.052Z,100.00
2024-01-22T21:39:34.304Z,100.00
2024-01-22T21:42:03.292Z,100.00
2024-01-22T21:44:33.232Z,100.00
2024-01-22T21:47:02.162Z,100.00
2024-01-22T21:49:31.518Z,100.00
2024-01-22T21:52:02.554Z,100.00
2024-01-22T21:54:31.769Z,100.00
2024-01-22T21:57:00.716Z,100.00
2024-01-22T21:59:31.576Z,100.00
2024-01-22T22:02:03.187Z,100.00
2024-01-22T22:04:32.921Z,100.00
2024-01-22T22:07:02.188Z,100.00
2024-01-22T22:09:31.630Z,100.00
2024-01-22T22:12:01.072Z,100.00
2024-01-22T22:14:31.275Z,100.00
2024-01-22T22:17:00.258Z,100.00
2024-01-22T22:19:29.651Z,100.00
2024-01-22T22:21:58.744Z,100.00
2024-01-22T22:24:29.238Z,100.00
2024-01-22T22:26:58.102Z,100.00
2024-01-22T22:29:27.181Z,100.00
2024-01-22T22:31:56.071Z,100.00
2024-01-22T22:34:25.335Z,100.00
2024-01-22T22:36:54.284Z,100.00
2024-01-22T22:39:23.527Z,100.00
2024-01-22T22:41:53.785Z,100.00
2024-01-22T22:44:22.922Z,100.00
2024-01-22T22:46:51.854Z,100.00
2024-01-22T22:49:21.194Z,100.00
2024-01-22T22:51:50.128Z,100.00
2024-01-22T22:54:19.437Z,100.00
2024-01-22T22:56:48.706Z,100.00
2024-01-22T22:59:19.273Z,100.00
2024-01-22T23:01:48.373Z,100.00
2024-01-22T23:04:17.804Z,100.00
2024-01-22T23:06:46.672Z,100.00
2024-01-22T23:09:16.879Z,100.00
2024-01-22T23:11:47.575Z,100.00
2024-01-22T23:14:17.408Z,100.00
2024-01-22T23:16:48.010Z,100.00
2024-01-22T23:19:17.379Z,100.00
2024-01-22T23:21:46.329Z,100.00
2024-01-22T23:24:16.048Z,100.00
2024-01-22T23:26:44.945Z,100.00
2024-01-22T23:29:14.158Z,100.00
2024-01-22T23:31:48.188Z,100.00
2024-01-22T23:34:19.775Z,100.00
2024-01-22T23:36:48.765Z,100.00
2024-01-22T23:39:18.644Z,100.00
2024-01-22T23:41:47.639Z,100.00
2024-01-22T23:44:16.865Z,100.00
2024-01-22T23:46:45.829Z,100.00
2024-01-22T23:49:15.233Z,100.00
2024-01-22T23:51:45.422Z,100.00
2024-01-22T23:54:14.673Z,100.00
2024-01-22T23:56:44.356Z,100.00
2024-01-22T23:59:13.465Z,100.00
